sensor_id;sensor_type;location;lat;lon;timestamp;temperature;humidity
63371;DHT22;49504;48.336;14.472;2023-06-05T00:01:13;26.10;52.10
63371;DHT22;49504;48.336;14.472;2023-06-05T00:04:36;26.10;52.10
63371;DHT22;49504;48.336;14.472;2023-06-05T00:07:57;26.10;52.10
63371;DHT22;49504;48.336;14.472;2023-06-05T00:11:18;26.10;52.20
63371;DHT22;49504;48.336;14.472;2023-06-05T00:14:39;26.10;52.10
63371;DHT22;49504;48.336;14.472;2023-06-05T00:18:03;26.10;52.10
63371;DHT22;49504;48.336;14.472;2023-06-05T00:23:31;26.10;51.50
63371;DHT22;49504;48.336;14.472;2023-06-05T00:26:53;26.10;52.00
63371;DHT22;49504;48.336;14.472;2023-06-05T00:30:14;26.10;52.10
63371;DHT22;49504;48.336;14.472;2023-06-05T00:33:35;26.10;52.10
63371;DHT22;49504;48.336;14.472;2023-06-05T00:36:57;26.10;52.10
63371;DHT22;49504;48.336;14.472;2023-06-05T00:40:20;26.10;52.00
63371;DHT22;49504;48.336;14.472;2023-06-05T00:43:41;26.10;52.10
63371;DHT22;49504;48.336;14.472;2023-06-05T00:48:36;26.10;51.50
63371;DHT22;49504;48.336;14.472;2023-06-05T00:51:57;26.10;52.10
63371;DHT22;49504;48.336;14.472;2023-06-05T00:55:19;26.10;52.10
63371;DHT22;49504;48.336;14.472;2023-06-05T00:58:40;26.10;52.10
63371;DHT22;49504;48.336;14.472;2023-06-05T01:02:01;26.10;52.20
63371;DHT22;49504;48.336;14.472;2023-06-05T01:05:24;26.00;52.10
63371;DHT22;49504;48.336;14.472;2023-06-05T01:08:45;26.10;52.10
63371;DHT22;49504;48.336;14.472;2023-06-05T01:12:11;26.10;52.10
63371;DHT22;49504;48.336;14.472;2023-06-05T01:15:38;26.10;52.10
63371;DHT22;49504;48.336;14.472;2023-06-05T01:19:00;26.10;52.10
63371;DHT22;49504;48.336;14.472;2023-06-05T01:22:25;26.00;52.10
63371;DHT22;49504;48.336;14.472;2023-06-05T01:25:48;26.10;52.10
63371;DHT22;49504;48.336;14.472;2023-06-05T01:29:11;26.00;52.10
63371;DHT22;49504;48.336;14.472;2023-06-05T01:32:37;26.00;52.00
63371;DHT22;49504;48.336;14.472;2023-06-05T01:36:04;26.00;52.10
63371;DHT22;49504;48.336;14.472;2023-06-05T01:39:26;26.10;52.20
63371;DHT22;49504;48.336;14.472;2023-06-05T01:42:50;26.10;52.20
63371;DHT22;49504;48.336;14.472;2023-06-05T01:46:12;26.00;52.10
63371;DHT22;49504;48.336;14.472;2023-06-05T01:49:36;26.00;52.10
63371;DHT22;49504;48.336;14.472;2023-06-05T01:55:06;26.00;51.50
63371;DHT22;49504;48.336;14.472;2023-06-05T01:58:28;26.10;52.10
63371;DHT22;49504;48.336;14.472;2023-06-05T02:01:49;26.10;52.10
63371;DHT22;49504;48.336;14.472;2023-06-05T02:05:10;26.00;52.10
63371;DHT22;49504;48.336;14.472;2023-06-05T02:08:32;26.00;52.10
63371;DHT22;49504;48.336;14.472;2023-06-05T02:12:13;26.00;51.60
63371;DHT22;49504;48.336;14.472;2023-06-05T02:15:35;26.00;52.10
63371;DHT22;49504;48.336;14.472;2023-06-05T02:18:56;26.00;52.10
63371;DHT22;49504;48.336;14.472;2023-06-05T02:22:17;26.10;52.20
63371;DHT22;49504;48.336;14.472;2023-06-05T02:25:38;26.00;52.10
63371;DHT22;49504;48.336;14.472;2023-06-05T02:29:01;26.00;52.10
63371;DHT22;49504;48.336;14.472;2023-06-05T02:32:22;26.00;52.10
63371;DHT22;49504;48.336;14.472;2023-06-05T02:35:43;26.10;52.20
63371;DHT22;49504;48.336;14.472;2023-06-05T02:39:05;26.00;52.20
63371;DHT22;49504;48.336;14.472;2023-06-05T02:42:26;26.00;52.20
63371;DHT22;49504;48.336;14.472;2023-06-05T02:45:49;26.10;52.90
63371;DHT22;49504;48.336;14.472;2023-06-05T02:49:10;26.00;52.20
63371;DHT22;49504;48.336;14.472;2023-06-05T02:52:31;26.00;52.20
63371;DHT22;49504;48.336;14.472;2023-06-05T02:55:52;26.10;52.30
63371;DHT22;49504;48.336;14.472;2023-06-05T02:59:14;26.00;52.20
63371;DHT22;49504;48.336;14.472;2023-06-05T03:04:20;26.00;51.60
63371;DHT22;49504;48.336;14.472;2023-06-05T03:07:42;26.00;52.20
63371;DHT22;49504;48.336;14.472;2023-06-05T03:11:04;26.00;52.30
63371;DHT22;49504;48.336;14.472;2023-06-05T03:15:25;26.00;51.60
63371;DHT22;49504;48.336;14.472;2023-06-05T03:22:08;26.00;51.70
63371;DHT22;49504;48.336;14.472;2023-06-05T03:25:32;26.00;52.30
63371;DHT22;49504;48.336;14.472;2023-06-05T03:28:53;26.00;52.40
63371;DHT22;49504;48.336;14.472;2023-06-05T03:32:21;26.00;52.40
63371;DHT22;49504;48.336;14.472;2023-06-05T03:35:43;26.00;52.20
63371;DHT22;49504;48.336;14.472;2023-06-05T03:39:06;26.00;52.30
63371;DHT22;49504;48.336;14.472;2023-06-05T03:42:30;26.00;52.40
63371;DHT22;49504;48.336;14.472;2023-06-05T03:45:52;26.00;52.40
63371;DHT22;49504;48.336;14.472;2023-06-05T03:49:14;26.00;52.40
63371;DHT22;49504;48.336;14.472;2023-06-05T03:52:35;26.00;52.30
63371;DHT22;49504;48.336;14.472;2023-06-05T03:55:58;26.00;52.40
63371;DHT22;49504;48.336;14.472;2023-06-05T03:59:26;26.00;52.30
63371;DHT22;49504;48.336;14.472;2023-06-05T04:02:52;26.00;52.30
63371;DHT22;49504;48.336;14.472;2023-06-05T04:06:13;26.00;52.30
63371;DHT22;49504;48.336;14.472;2023-06-05T04:09:34;26.00;52.40
63371;DHT22;49504;48.336;14.472;2023-06-05T04:12:57;26.00;52.30
63371;DHT22;49504;48.336;14.472;2023-06-05T04:16:19;26.00;52.30
63371;DHT22;49504;48.336;14.472;2023-06-05T04:21:01;26.00;51.80
63371;DHT22;49504;48.336;14.472;2023-06-05T04:27:13;26.00;51.90
63371;DHT22;49504;48.336;14.472;2023-06-05T04:30:38;26.00;52.60
63371;DHT22;49504;48.336;14.472;2023-06-05T04:34:00;26.00;52.60
63371;DHT22;49504;48.336;14.472;2023-06-05T04:37:22;26.00;52.60
63371;DHT22;49504;48.336;14.472;2023-06-05T04:43:19;26.00;51.80
63371;DHT22;49504;48.336;14.472;2023-06-05T04:46:40;26.00;52.40
63371;DHT22;49504;48.336;14.472;2023-06-05T04:50:04;26.00;52.20
63371;DHT22;49504;48.336;14.472;2023-06-05T04:53:27;26.00;52.30
63371;DHT22;49504;48.336;14.472;2023-06-05T04:56:48;26.00;52.30
63371;DHT22;49504;48.336;14.472;2023-06-05T05:00:12;26.00;52.20
63371;DHT22;49504;48.336;14.472;2023-06-05T05:03:34;26.00;52.20
63371;DHT22;49504;48.336;14.472;2023-06-05T05:06:56;26.00;52.00
63371;DHT22;49504;48.336;14.472;2023-06-05T05:10:17;26.00;52.10
63371;DHT22;49504;48.336;14.472;2023-06-05T05:13:40;26.00;52.10
63371;DHT22;49504;48.336;14.472;2023-06-05T05:17:03;26.00;52.20
63371;DHT22;49504;48.336;14.472;2023-06-05T05:20:26;26.00;52.20
63371;DHT22;49504;48.336;14.472;2023-06-05T05:23:48;26.00;52.10
63371;DHT22;49504;48.336;14.472;2023-06-05T05:27:09;25.90;52.10
63371;DHT22;49504;48.336;14.472;2023-06-05T05:30:30;26.00;52.20
63371;DHT22;49504;48.336;14.472;2023-06-05T05:33:53;26.00;52.20
63371;DHT22;49504;48.336;14.472;2023-06-05T05:37:14;26.00;52.20
63371;DHT22;49504;48.336;14.472;2023-06-05T05:40:36;25.90;52.10
63371;DHT22;49504;48.336;14.472;2023-06-05T05:43:57;25.90;52.20
63371;DHT22;49504;48.336;14.472;2023-06-05T05:47:18;26.00;52.20
63371;DHT22;49504;48.336;14.472;2023-06-05T05:50:41;25.90;52.10
63371;DHT22;49504;48.336;14.472;2023-06-05T05:54:02;25.90;52.10
63371;DHT22;49504;48.336;14.472;2023-06-05T05:57:24;25.90;52.10
63371;DHT22;49504;48.336;14.472;2023-06-05T06:00:45;25.90;52.20
63371;DHT22;49504;48.336;14.472;2023-06-05T06:04:06;25.90;52.20
63371;DHT22;49504;48.336;14.472;2023-06-05T06:07:28;25.90;52.10
63371;DHT22;49504;48.336;14.472;2023-06-05T06:10:50;25.90;52.20
63371;DHT22;49504;48.336;14.472;2023-06-05T06:14:11;25.90;52.20
63371;DHT22;49504;48.336;14.472;2023-06-05T06:17:32;25.90;52.30
63371;DHT22;49504;48.336;14.472;2023-06-05T06:20:53;26.00;52.40
63371;DHT22;49504;48.336;14.472;2023-06-05T06:24:16;25.90;52.30
63371;DHT22;49504;48.336;14.472;2023-06-05T06:27:37;25.90;52.30
63371;DHT22;49504;48.336;14.472;2023-06-05T06:30:58;25.90;52.30
63371;DHT22;49504;48.336;14.472;2023-06-05T06:34:19;25.90;52.30
63371;DHT22;49504;48.336;14.472;2023-06-05T06:37:40;25.90;52.30
63371;DHT22;49504;48.336;14.472;2023-06-05T06:41:03;25.90;52.30
63371;DHT22;49504;48.336;14.472;2023-06-05T06:44:24;25.90;52.30
63371;DHT22;49504;48.336;14.472;2023-06-05T06:47:45;25.90;52.20
63371;DHT22;49504;48.336;14.472;2023-06-05T06:51:06;25.90;52.20
63371;DHT22;49504;48.336;14.472;2023-06-05T06:54:27;25.90;52.20
63371;DHT22;49504;48.336;14.472;2023-06-05T06:57:50;25.90;52.10
63371;DHT22;49504;48.336;14.472;2023-06-05T07:01:13;25.90;52.20
63371;DHT22;49504;48.336;14.472;2023-06-05T07:04:35;25.90;52.20
63371;DHT22;49504;48.336;14.472;2023-06-05T07:07:56;25.90;52.20
63371;DHT22;49504;48.336;14.472;2023-06-05T07:11:17;25.90;52.20
63371;DHT22;49504;48.336;14.472;2023-06-05T07:14:40;26.00;52.30
63371;DHT22;49504;48.336;14.472;2023-06-05T07:18:01;25.90;52.20
63371;DHT22;49504;48.336;14.472;2023-06-05T07:21:22;25.90;52.20
63371;DHT22;49504;48.336;14.472;2023-06-05T07:24:43;25.90;52.20
63371;DHT22;49504;48.336;14.472;2023-06-05T07:28:08;25.90;52.20
63371;DHT22;49504;48.336;14.472;2023-06-05T07:31:31;25.90;52.20
63371;DHT22;49504;48.336;14.472;2023-06-05T07:34:52;25.90;52.30
63371;DHT22;49504;48.336;14.472;2023-06-05T07:38:46;25.90;51.70
63371;DHT22;49504;48.336;14.472;2023-06-05T07:42:07;25.90;52.40
63371;DHT22;49504;48.336;14.472;2023-06-05T07:45:28;25.90;52.50
63371;DHT22;49504;48.336;14.472;2023-06-05T07:48:49;25.90;52.50
63371;DHT22;49504;48.336;14.472;2023-06-05T07:52:10;25.90;52.50
63371;DHT22;49504;48.336;14.472;2023-06-05T07:55:33;25.90;52.40
63371;DHT22;49504;48.336;14.472;2023-06-05T07:58:54;25.90;52.40
63371;DHT22;49504;48.336;14.472;2023-06-05T08:02:15;25.90;52.40
63371;DHT22;49504;48.336;14.472;2023-06-05T08:05:36;25.90;52.50
63371;DHT22;49504;48.336;14.472;2023-06-05T08:08:59;25.90;52.60
63371;DHT22;49504;48.336;14.472;2023-06-05T08:12:22;25.90;52.50
63371;DHT22;49504;48.336;14.472;2023-06-05T08:17:54;25.90;51.90
63371;DHT22;49504;48.336;14.472;2023-06-05T08:21:15;25.90;52.50
63371;DHT22;49504;48.336;14.472;2023-06-05T08:24:36;25.90;52.50
63371;DHT22;49504;48.336;14.472;2023-06-05T08:27:57;25.90;52.60
63371;DHT22;49504;48.336;14.472;2023-06-05T08:31:18;25.90;52.70
63371;DHT22;49504;48.336;14.472;2023-06-05T08:34:41;25.90;52.70
63371;DHT22;49504;48.336;14.472;2023-06-05T08:38:02;25.90;52.60
63371;DHT22;49504;48.336;14.472;2023-06-05T08:41:25;25.90;52.70
63371;DHT22;49504;48.336;14.472;2023-06-05T08:44:46;25.90;52.80
63371;DHT22;49504;48.336;14.472;2023-06-05T08:48:11;25.90;52.60
63371;DHT22;49504;48.336;14.472;2023-06-05T08:51:36;25.90;52.60
63371;DHT22;49504;48.336;14.472;2023-06-05T08:54:58;25.90;52.60
63371;DHT22;49504;48.336;14.472;2023-06-05T08:58:20;25.90;52.60
63371;DHT22;49504;48.336;14.472;2023-06-05T09:01:41;25.90;52.60
63371;DHT22;49504;48.336;14.472;2023-06-05T09:05:02;25.90;52.50
63371;DHT22;49504;48.336;14.472;2023-06-05T09:08:30;25.90;52.60
63371;DHT22;49504;48.336;14.472;2023-06-05T09:13:11;25.90;52.00
63371;DHT22;49504;48.336;14.472;2023-06-05T09:16:34;25.90;52.60
63371;DHT22;49504;48.336;14.472;2023-06-05T09:19:56;25.90;52.60
63371;DHT22;49504;48.336;14.472;2023-06-05T09:23:25;26.00;52.50
63371;DHT22;49504;48.336;14.472;2023-06-05T09:29:24;26.00;52.10
63371;DHT22;49504;48.336;14.472;2023-06-05T09:32:46;26.10;52.50
63371;DHT22;49504;48.336;14.472;2023-06-05T09:36:09;26.10;52.30
63371;DHT22;49504;48.336;14.472;2023-06-05T09:39:32;26.10;52.20
63371;DHT22;49504;48.336;14.472;2023-06-05T09:42:54;26.20;52.20
63371;DHT22;49504;48.336;14.472;2023-06-05T09:46:16;26.30;52.30
63371;DHT22;49504;48.336;14.472;2023-06-05T09:49:46;26.30;52.20
63371;DHT22;49504;48.336;14.472;2023-06-05T09:53:09;26.30;52.10
63371;DHT22;49504;48.336;14.472;2023-06-05T09:56:30;26.30;52.00
63371;DHT22;49504;48.336;14.472;2023-06-05T09:59:54;26.40;52.00
63371;DHT22;49504;48.336;14.472;2023-06-05T10:03:17;26.40;52.00
63371;DHT22;49504;48.336;14.472;2023-06-05T10:06:42;26.40;52.00
63371;DHT22;49504;48.336;14.472;2023-06-05T10:10:05;26.40;51.90
63371;DHT22;49504;48.336;14.472;2023-06-05T10:16:11;26.50;51.70
63371;DHT22;49504;48.336;14.472;2023-06-05T10:20:08;26.50;51.50
63371;DHT22;49504;48.336;14.472;2023-06-05T10:23:31;26.50;52.00
63371;DHT22;49504;48.336;14.472;2023-06-05T10:27:15;26.50;52.00
63371;DHT22;49504;48.336;14.472;2023-06-05T10:34:48;26.50;52.10
63371;DHT22;49504;48.336;14.472;2023-06-05T10:38:18;26.60;52.30
63371;DHT22;49504;48.336;14.472;2023-06-05T10:41:41;26.50;52.20
63371;DHT22;49504;48.336;14.472;2023-06-05T10:51:32;26.60;51.70
63371;DHT22;49504;48.336;14.472;2023-06-05T10:54:54;26.60;52.20
63371;DHT22;49504;48.336;14.472;2023-06-05T10:58:15;26.60;52.30
63371;DHT22;49504;48.336;14.472;2023-06-05T11:01:36;26.60;52.20
63371;DHT22;49504;48.336;14.472;2023-06-05T11:05:10;26.60;52.20
63371;DHT22;49504;48.336;14.472;2023-06-05T11:08:33;26.70;52.30
63371;DHT22;49504;48.336;14.472;2023-06-05T11:11:58;26.70;52.40
63371;DHT22;49504;48.336;14.472;2023-06-05T11:15:38;26.70;52.20
63371;DHT22;49504;48.336;14.472;2023-06-05T11:19:35;26.70;52.40
63371;DHT22;49504;48.336;14.472;2023-06-05T11:24:17;26.70;51.90
63371;DHT22;49504;48.336;14.472;2023-06-05T11:27:42;26.70;52.50
63371;DHT22;49504;48.336;14.472;2023-06-05T11:31:04;26.70;52.50
63371;DHT22;49504;48.336;14.472;2023-06-05T11:34:25;26.70;52.50
63371;DHT22;49504;48.336;14.472;2023-06-05T11:37:47;26.70;52.40
63371;DHT22;49504;48.336;14.472;2023-06-05T11:41:09;26.70;52.60
63371;DHT22;49504;48.336;14.472;2023-06-05T11:44:32;26.80;52.60
63371;DHT22;49504;48.336;14.472;2023-06-05T11:48:03;26.80;52.60
63371;DHT22;49504;48.336;14.472;2023-06-05T11:51:32;26.70;52.40
63371;DHT22;49504;48.336;14.472;2023-06-05T11:54:53;26.80;52.50
63371;DHT22;49504;48.336;14.472;2023-06-05T11:58:22;26.80;52.50
63371;DHT22;49504;48.336;14.472;2023-06-05T12:04:05;26.80;51.90
63371;DHT22;49504;48.336;14.472;2023-06-05T12:10:09;26.70;51.80
63371;DHT22;49504;48.336;14.472;2023-06-05T12:13:47;26.70;52.40
63371;DHT22;49504;48.336;14.472;2023-06-05T12:17:09;26.70;53.00
63371;DHT22;49504;48.336;14.472;2023-06-05T12:20:38;26.70;52.40
63371;DHT22;49504;48.336;14.472;2023-06-05T12:24:03;26.70;52.40
63371;DHT22;49504;48.336;14.472;2023-06-05T12:27:31;26.70;52.50
63371;DHT22;49504;48.336;14.472;2023-06-05T12:33:07;26.60;51.80
63371;DHT22;49504;48.336;14.472;2023-06-05T12:36:29;26.70;52.60
63371;DHT22;49504;48.336;14.472;2023-06-05T12:42:07;26.60;52.10
63371;DHT22;49504;48.336;14.472;2023-06-05T12:45:28;26.60;52.70
63371;DHT22;49504;48.336;14.472;2023-06-05T12:48:50;26.60;52.70
63371;DHT22;49504;48.336;14.472;2023-06-05T12:52:12;26.60;52.60
63371;DHT22;49504;48.336;14.472;2023-06-05T12:55:33;26.60;52.70
63371;DHT22;49504;48.336;14.472;2023-06-05T12:58:57;26.60;52.80
63371;DHT22;49504;48.336;14.472;2023-06-05T13:04:44;26.60;52.20
63371;DHT22;49504;48.336;14.472;2023-06-05T13:08:05;26.50;52.90
63371;DHT22;49504;48.336;14.472;2023-06-05T13:11:27;26.50;52.90
63371;DHT22;49504;48.336;14.472;2023-06-05T13:14:49;26.50;53.00
63371;DHT22;49504;48.336;14.472;2023-06-05T13:18:10;26.50;53.00
63371;DHT22;49504;48.336;14.472;2023-06-05T13:21:32;26.50;53.00
63371;DHT22;49504;48.336;14.472;2023-06-05T13:24:53;26.50;53.00
63371;DHT22;49504;48.336;14.472;2023-06-05T13:28:15;26.50;53.00
63371;DHT22;49504;48.336;14.472;2023-06-05T13:31:36;26.50;53.10
63371;DHT22;49504;48.336;14.472;2023-06-05T13:34:57;26.50;53.00
63371;DHT22;49504;48.336;14.472;2023-06-05T13:38:20;26.40;52.90
63371;DHT22;49504;48.336;14.472;2023-06-05T13:41:41;26.50;53.10
63371;DHT22;49504;48.336;14.472;2023-06-05T13:45:03;26.40;53.00
63371;DHT22;49504;48.336;14.472;2023-06-05T13:48:26;26.40;53.00
63371;DHT22;49504;48.336;14.472;2023-06-05T13:51:47;26.40;53.00
63371;DHT22;49504;48.336;14.472;2023-06-05T13:55:10;26.50;53.80
63371;DHT22;49504;48.336;14.472;2023-06-05T13:58:31;26.40;53.10
63371;DHT22;49504;48.336;14.472;2023-06-05T14:01:53;26.40;53.10
63371;DHT22;49504;48.336;14.472;2023-06-05T14:05:16;26.40;53.20
63371;DHT22;49504;48.336;14.472;2023-06-05T14:08:37;26.40;53.10
63371;DHT22;49504;48.336;14.472;2023-06-05T14:11:59;26.40;53.10
63371;DHT22;49504;48.336;14.472;2023-06-05T14:15:21;26.50;53.20
63371;DHT22;49504;48.336;14.472;2023-06-05T14:19:08;26.40;52.50
63371;DHT22;49504;48.336;14.472;2023-06-05T14:22:29;26.40;53.20
63371;DHT22;49504;48.336;14.472;2023-06-05T14:25:51;26.40;53.20
63371;DHT22;49504;48.336;14.472;2023-06-05T14:29:12;26.40;53.20
63371;DHT22;49504;48.336;14.472;2023-06-05T14:32:33;26.40;53.20
63371;DHT22;49504;48.336;14.472;2023-06-05T14:36:29;26.40;52.50
63371;DHT22;49504;48.336;14.472;2023-06-05T14:39:50;26.40;53.20
63371;DHT22;49504;48.336;14.472;2023-06-05T14:43:12;26.40;53.20
63371;DHT22;49504;48.336;14.472;2023-06-05T14:46:34;26.40;53.20
63371;DHT22;49504;48.336;14.472;2023-06-05T14:49:56;26.40;53.30
63371;DHT22;49504;48.336;14.472;2023-06-05T14:55:13;26.40;52.60
63371;DHT22;49504;48.336;14.472;2023-06-05T15:01:15;26.40;52.60
63371;DHT22;49504;48.336;14.472;2023-06-05T15:04:36;26.40;53.20
63371;DHT22;49504;48.336;14.472;2023-06-05T15:07:58;26.40;53.20
63371;DHT22;49504;48.336;14.472;2023-06-05T15:11:19;26.40;53.10
63371;DHT22;49504;48.336;14.472;2023-06-05T15:14:40;26.40;53.20
63371;DHT22;49504;48.336;14.472;2023-06-05T15:18:03;26.40;53.30
63371;DHT22;49504;48.336;14.472;2023-06-05T15:21:26;26.40;53.20
63371;DHT22;49504;48.336;14.472;2023-06-05T15:25:49;26.40;52.60
63371;DHT22;49504;48.336;14.472;2023-06-05T15:32:16;26.40;52.60
63371;DHT22;49504;48.336;14.472;2023-06-05T15:35:37;26.40;53.30
63371;DHT22;49504;48.336;14.472;2023-06-05T15:38:58;26.40;53.40
63371;DHT22;49504;48.336;14.472;2023-06-05T15:42:27;26.40;53.40
63371;DHT22;49504;48.336;14.472;2023-06-05T15:45:49;26.40;53.30
63371;DHT22;49504;48.336;14.472;2023-06-05T15:49:11;26.40;53.30
63371;DHT22;49504;48.336;14.472;2023-06-05T15:52:35;26.40;53.30
63371;DHT22;49504;48.336;14.472;2023-06-05T15:55:57;26.40;53.60
63371;DHT22;49504;48.336;14.472;2023-06-05T15:59:18;26.40;53.40
63371;DHT22;49504;48.336;14.472;2023-06-05T16:04:54;26.40;52.70
63371;DHT22;49504;48.336;14.472;2023-06-05T16:08:51;26.40;52.70
63371;DHT22;49504;48.336;14.472;2023-06-05T16:12:13;26.40;53.40
63371;DHT22;49504;48.336;14.472;2023-06-05T16:15:34;26.40;53.50
63371;DHT22;49504;48.336;14.472;2023-06-05T16:18:55;26.40;53.50
63371;DHT22;49504;48.336;14.472;2023-06-05T16:22:16;26.40;53.40
63371;DHT22;49504;48.336;14.472;2023-06-05T16:25:39;26.40;53.40
63371;DHT22;49504;48.336;14.472;2023-06-05T16:29:00;26.40;53.40
63371;DHT22;49504;48.336;14.472;2023-06-05T16:32:21;26.40;53.30
63371;DHT22;49504;48.336;14.472;2023-06-05T16:35:42;26.40;53.40
63371;DHT22;49504;48.336;14.472;2023-06-05T16:39:03;26.50;53.40
63371;DHT22;49504;48.336;14.472;2023-06-05T16:42:26;26.50;53.50
63371;DHT22;49504;48.336;14.472;2023-06-05T16:45:48;26.40;53.40
63371;DHT22;49504;48.336;14.472;2023-06-05T16:49:09;26.40;53.40
63371;DHT22;49504;48.336;14.472;2023-06-05T16:52:31;26.40;53.40
63371;DHT22;49504;48.336;14.472;2023-06-05T16:55:52;26.40;53.40
63371;DHT22;49504;48.336;14.472;2023-06-05T16:59:16;26.40;53.40
63371;DHT22;49504;48.336;14.472;2023-06-05T17:02:38;26.40;53.40
63371;DHT22;49504;48.336;14.472;2023-06-05T17:05:59;26.40;53.40
63371;DHT22;49504;48.336;14.472;2023-06-05T17:09:21;26.50;53.50
63371;DHT22;49504;48.336;14.472;2023-06-05T17:12:43;26.40;54.10
63371;DHT22;49504;48.336;14.472;2023-06-05T17:16:05;26.50;53.50
63371;DHT22;49504;48.336;14.472;2023-06-05T17:19:26;26.40;53.50
63371;DHT22;49504;48.336;14.472;2023-06-05T17:22:52;26.40;53.50
63371;DHT22;49504;48.336;14.472;2023-06-05T17:26:16;26.40;53.40
63371;DHT22;49504;48.336;14.472;2023-06-05T17:29:37;26.40;53.40
63371;DHT22;49504;48.336;14.472;2023-06-05T17:33:07;26.40;53.50
63371;DHT22;49504;48.336;14.472;2023-06-05T17:36:29;26.40;53.50
63371;DHT22;49504;48.336;14.472;2023-06-05T17:39:50;26.40;53.50
63371;DHT22;49504;48.336;14.472;2023-06-05T17:43:12;26.40;53.50
63371;DHT22;49504;48.336;14.472;2023-06-05T17:46:33;26.40;53.60
63371;DHT22;49504;48.336;14.472;2023-06-05T17:50:25;26.40;53.00
63371;DHT22;49504;48.336;14.472;2023-06-05T17:55:18;26.40;52.90
63371;DHT22;49504;48.336;14.472;2023-06-05T17:58:42;26.40;53.60
63371;DHT22;49504;48.336;14.472;2023-06-05T18:02:05;26.40;53.60
63371;DHT22;49504;48.336;14.472;2023-06-05T18:07:49;26.40;53.00
63371;DHT22;49504;48.336;14.472;2023-06-05T18:11:13;26.40;53.60
63371;DHT22;49504;48.336;14.472;2023-06-05T18:14:35;26.40;53.70
63371;DHT22;49504;48.336;14.472;2023-06-05T18:17:58;26.40;54.00
63371;DHT22;49504;48.336;14.472;2023-06-05T18:21:25;26.40;53.90
63371;DHT22;49504;48.336;14.472;2023-06-05T18:24:51;26.40;53.90
63371;DHT22;49504;48.336;14.472;2023-06-05T18:28:16;26.40;53.90
63371;DHT22;49504;48.336;14.472;2023-06-05T18:31:39;26.40;54.20
63371;DHT22;49504;48.336;14.472;2023-06-05T18:35:01;26.30;53.90
63371;DHT22;49504;48.336;14.472;2023-06-05T18:38:26;26.40;53.90
63371;DHT22;49504;48.336;14.472;2023-06-05T18:41:51;26.30;53.80
63371;DHT22;49504;48.336;14.472;2023-06-05T18:45:14;26.40;53.90
63371;DHT22;49504;48.336;14.472;2023-06-05T18:48:37;26.40;54.00
63371;DHT22;49504;48.336;14.472;2023-06-05T18:51:59;26.40;54.60
63371;DHT22;49504;48.336;14.472;2023-06-05T18:55:22;26.30;54.10
63371;DHT22;49504;48.336;14.472;2023-06-05T19:01:52;26.40;53.40
63371;DHT22;49504;48.336;14.472;2023-06-05T19:05:17;26.40;54.00
63371;DHT22;49504;48.336;14.472;2023-06-05T19:08:40;26.30;53.80
63371;DHT22;49504;48.336;14.472;2023-06-05T19:12:05;26.30;53.90
63371;DHT22;49504;48.336;14.472;2023-06-05T19:15:29;26.40;54.00
63371;DHT22;49504;48.336;14.472;2023-06-05T19:18:55;26.40;54.00
63371;DHT22;49504;48.336;14.472;2023-06-05T19:22:18;26.30;53.90
63371;DHT22;49504;48.336;14.472;2023-06-05T19:25:40;26.40;54.00
63371;DHT22;49504;48.336;14.472;2023-06-05T19:30:51;26.30;53.30
63371;DHT22;49504;48.336;14.472;2023-06-05T19:34:13;26.30;53.90
63371;DHT22;49504;48.336;14.472;2023-06-05T19:37:34;26.30;53.90
63371;DHT22;49504;48.336;14.472;2023-06-05T19:40:55;26.30;53.90
63371;DHT22;49504;48.336;14.472;2023-06-05T19:44:16;26.40;53.90
63371;DHT22;49504;48.336;14.472;2023-06-05T19:47:38;26.40;53.90
63371;DHT22;49504;48.336;14.472;2023-06-05T19:50:59;26.40;53.90
63371;DHT22;49504;48.336;14.472;2023-06-05T19:54:21;26.30;53.80
63371;DHT22;49504;48.336;14.472;2023-06-05T19:57:42;26.30;53.90
63371;DHT22;49504;48.336;14.472;2023-06-05T20:01:03;26.30;53.90
63371;DHT22;49504;48.336;14.472;2023-06-05T20:04:25;26.40;54.00
63371;DHT22;49504;48.336;14.472;2023-06-05T20:07:47;26.30;53.90
63371;DHT22;49504;48.336;14.472;2023-06-05T20:11:08;26.30;54.00
63371;DHT22;49504;48.336;14.472;2023-06-05T20:14:29;26.30;54.00
63371;DHT22;49504;48.336;14.472;2023-06-05T20:17:50;26.30;54.00
63371;DHT22;49504;48.336;14.472;2023-06-05T20:21:13;26.30;54.10
63371;DHT22;49504;48.336;14.472;2023-06-05T20:24:34;26.30;54.00
63371;DHT22;49504;48.336;14.472;2023-06-05T20:27:55;26.30;54.10
63371;DHT22;49504;48.336;14.472;2023-06-05T20:31:16;26.30;54.10
63371;DHT22;49504;48.336;14.472;2023-06-05T20:34:37;26.30;54.10
63371;DHT22;49504;48.336;14.472;2023-06-05T20:37:59;26.30;54.00
63371;DHT22;49504;48.336;14.472;2023-06-05T20:41:21;26.30;54.00
63371;DHT22;49504;48.336;14.472;2023-06-05T20:44:42;26.30;54.00
63371;DHT22;49504;48.336;14.472;2023-06-05T20:48:03;26.30;53.90
63371;DHT22;49504;48.336;14.472;2023-06-05T20:51:24;26.30;54.10
63371;DHT22;49504;48.336;14.472;2023-06-05T20:54:47;26.30;54.20
63371;DHT22;49504;48.336;14.472;2023-06-05T20:58:08;26.30;54.50
63371;DHT22;49504;48.336;14.472;2023-06-05T21:01:29;26.30;54.50
63371;DHT22;49504;48.336;14.472;2023-06-05T21:04:50;26.30;54.40
63371;DHT22;49504;48.336;14.472;2023-06-05T21:08:11;26.30;54.40
63371;DHT22;49504;48.336;14.472;2023-06-05T21:11:34;26.30;54.40
63371;DHT22;49504;48.336;14.472;2023-06-05T21:14:55;26.30;54.10
63371;DHT22;49504;48.336;14.472;2023-06-05T21:18:16;26.20;54.00
63371;DHT22;49504;48.336;14.472;2023-06-05T21:21:37;26.30;54.00
63371;DHT22;49504;48.336;14.472;2023-06-05T21:24:58;26.20;53.90
63371;DHT22;49504;48.336;14.472;2023-06-05T21:28:21;26.30;53.90
63371;DHT22;49504;48.336;14.472;2023-06-05T21:31:45;26.20;53.90
63371;DHT22;49504;48.336;14.472;2023-06-05T21:35:07;26.30;53.90
63371;DHT22;49504;48.336;14.472;2023-06-05T21:38:28;26.30;53.90
63371;DHT22;49504;48.336;14.472;2023-06-05T21:41:49;26.30;53.90
63371;DHT22;49504;48.336;14.472;2023-06-05T21:45:12;26.30;53.80
63371;DHT22;49504;48.336;14.472;2023-06-05T21:49:50;26.20;53.20
63371;DHT22;49504;48.336;14.472;2023-06-05T21:56:11;26.20;53.30
63371;DHT22;49504;48.336;14.472;2023-06-05T21:59:32;26.20;53.70
63371;DHT22;49504;48.336;14.472;2023-06-05T22:02:53;26.20;53.70
63371;DHT22;49504;48.336;14.472;2023-06-05T22:06:14;26.20;53.70
63371;DHT22;49504;48.336;14.472;2023-06-05T22:09:36;26.20;53.60
63371;DHT22;49504;48.336;14.472;2023-06-05T22:12:58;26.20;53.60
63371;DHT22;49504;48.336;14.472;2023-06-05T22:16:19;26.30;53.80